aviador You're here:

BKPR Decoded Metar

PRISHTINA in SERBIA
Report Time2017-08-16 15:00:00
UTC Time2017-08-16 15:04:55
Flight Rules vfr VFR
Wind010° at 11 kt
W.Decomp.*RWY 35: 10.5 kt HW 3.4 kt RCW
W.Rank010° ranks 2
Current wind is above 010° avg. (9.6)
Visibility9999 m
Phenomena:N/A
Clouds:Few CB 035 Hf
Few 040 Hf
Expected CloudBase > 8,000 ft AGL from Temp-Dew spread
CeilingNone
Temp30°C (ISA +19)
Dew Point10°C (29% RH)
Heat Index28.7°C
AAT26.1°C
QNH1017 hPa
Density Alt4,065 ft
Elevation1,890 ft
Report Wrong Elevation
Raw Report
METAR BKPR 161500Z 01011KT 9999 FEW035CB FEW040 30/10 Q1017 NOSIG =

Extra information for BKPR:More info

Metar Taf Metar & Taf Last 4 Metars F.Rules Stats Wind Profile Meteogram Temp Stats Airport Information Weather charts Add Link Nearby VenuesMetar ALERT Operation Metar Decoded Social comments